createdAt,value
2018-12-22T00:00:38.796Z,0.53
2018-12-22T00:03:06.236Z,0.70
2018-12-22T00:05:33.706Z,0.63
2018-12-22T00:08:01.777Z,0.70
2018-12-22T00:10:29.496Z,1.20
2018-12-22T00:12:57.012Z,1.00
2018-12-22T00:15:24.471Z,1.00
2018-12-22T00:17:51.946Z,1.10
2018-12-22T00:20:19.743Z,1.20
2018-12-22T00:22:47.203Z,0.80
2018-12-22T00:25:14.648Z,1.93
2018-12-22T00:27:42.060Z,1.37
2018-12-22T00:30:09.632Z,0.90
2018-12-22T00:32:37.083Z,1.20
2018-12-22T00:35:05.436Z,1.30
2018-12-22T00:37:32.872Z,1.30
2018-12-22T00:40:00.317Z,1.40
2018-12-22T00:42:27.845Z,1.13
2018-12-22T00:44:55.325Z,1.20
2018-12-22T00:47:22.798Z,1.27
2018-12-22T00:49:50.247Z,2.23
2018-12-22T00:52:17.742Z,1.43
2018-12-22T00:54:45.153Z,1.73
2018-12-22T00:57:12.635Z,1.90
2018-12-22T00:59:40.092Z,2.33
2018-12-22T01:02:07.535Z,1.73
2018-12-22T01:04:34.979Z,1.33
2018-12-22T01:07:02.517Z,1.37
2018-12-22T01:09:30.017Z,1.70
2018-12-22T01:11:57.520Z,0.83
2018-12-22T01:14:25.674Z,2.13
2018-12-22T01:16:53.095Z,1.27
2018-12-22T01:19:20.531Z,1.27
2018-12-22T01:21:47.968Z,1.30
2018-12-22T01:24:15.405Z,3.00
2018-12-22T01:26:42.840Z,1.77
2018-12-22T01:29:10.315Z,4.60
2018-12-22T01:31:37.724Z,2.90
2018-12-22T01:34:05.182Z,2.10
2018-12-22T01:36:32.663Z,2.87
2018-12-22T01:39:00.101Z,1.13
2018-12-22T01:41:27.580Z,1.47
2018-12-22T01:43:55.079Z,1.30
2018-12-22T01:46:22.509Z,1.63
2018-12-22T01:48:49.944Z,1.30
2018-12-22T01:51:17.453Z,1.27
2018-12-22T01:53:44.881Z,1.30
2018-12-22T01:56:12.325Z,1.67
2018-12-22T01:58:47.620Z,2.47
2018-12-22T02:01:09.256Z,2.00
2018-12-22T02:03:36.664Z,2.40
2018-12-22T02:06:04.150Z,1.50
2018-12-22T02:08:31.584Z,4.20
2018-12-22T02:10:59.063Z,1.93
2018-12-22T02:13:26.536Z,1.60
2018-12-22T02:15:53.973Z,1.93
2018-12-22T02:18:21.418Z,2.03
2018-12-22T02:20:49.198Z,2.17
2018-12-22T02:23:16.688Z,2.50
2018-12-22T02:25:44.127Z,1.70
2018-12-22T02:28:11.628Z,1.57
2018-12-22T02:30:39.181Z,1.10
2018-12-22T02:33:06.582Z,1.17
2018-12-22T02:35:34.076Z,1.40
2018-12-22T02:38:01.536Z,1.20
2018-12-22T02:40:28.992Z,1.37
2018-12-22T02:42:56.424Z,1.47
2018-12-22T02:45:23.879Z,1.37
2018-12-22T02:47:51.313Z,2.07
2018-12-22T02:50:18.863Z,4.27
2018-12-22T02:52:46.318Z,2.30
2018-12-22T02:55:13.752Z,1.67
2018-12-22T02:57:41.188Z,1.17
2018-12-22T03:00:10.434Z,1.87
2018-12-22T03:02:37.877Z,2.17
2018-12-22T03:05:05.400Z,1.47
2018-12-22T03:07:32.862Z,1.50
2018-12-22T03:10:00.329Z,2.70
2018-12-22T03:12:27.891Z,4.13
2018-12-22T03:14:55.326Z,1.33
2018-12-22T03:17:22.755Z,1.40
2018-12-22T03:19:50.681Z,1.07
2018-12-22T03:22:18.298Z,1.93
2018-12-22T03:24:45.718Z,1.53
2018-12-22T03:27:13.200Z,2.50
2018-12-22T03:29:40.646Z,1.60
2018-12-22T03:32:08.090Z,1.63
2018-12-22T03:34:35.671Z,1.40
2018-12-22T03:37:03.125Z,1.33
2018-12-22T03:39:30.594Z,1.53
2018-12-22T03:41:58.102Z,1.07
2018-12-22T03:44:25.550Z,1.20
2018-12-22T03:46:53.026Z,3.17
2018-12-22T03:49:20.452Z,1.33
2018-12-22T03:51:47.945Z,6.07
2018-12-22T03:54:15.415Z,1.30
2018-12-22T03:56:43.306Z,1.50
2018-12-22T03:59:10.741Z,1.23
2018-12-22T04:01:38.206Z,2.43
2018-12-22T04:04:05.736Z,1.83
2018-12-22T04:06:33.191Z,2.87
2018-12-22T04:09:00.691Z,3.47
2018-12-22T04:11:28.189Z,2.33
2018-12-22T04:13:55.636Z,1.50
2018-12-22T04:16:23.110Z,4.63
2018-12-22T04:18:50.580Z,4.73
2018-12-22T04:21:18.016Z,2.80
2018-12-22T04:23:45.473Z,2.43
2018-12-22T04:26:12.917Z,2.07
2018-12-22T04:28:40.329Z,2.03
2018-12-22T04:31:07.791Z,2.13
2018-12-22T04:33:35.287Z,3.00
2018-12-22T04:36:02.804Z,1.70
2018-12-22T04:38:30.607Z,2.67
2018-12-22T04:40:58.263Z,3.23
2018-12-22T04:43:25.894Z,2.03
2018-12-22T04:45:53.390Z,1.60
2018-12-22T04:48:20.872Z,1.60
2018-12-22T04:50:48.319Z,2.70
2018-12-22T04:53:15.864Z,2.13
2018-12-22T04:55:43.304Z,2.07
2018-12-22T04:58:10.720Z,1.83
2018-12-22T05:00:38.137Z,1.93
2018-12-22T05:03:05.844Z,1.83
2018-12-22T05:05:33.328Z,3.23
2018-12-22T05:08:00.734Z,3.73
2018-12-22T05:10:28.294Z,2.07
2018-12-22T05:12:55.747Z,1.73
2018-12-22T05:15:23.192Z,2.43
2018-12-22T05:17:50.664Z,2.50
2018-12-22T05:20:18.081Z,3.43
2018-12-22T05:22:45.529Z,1.77
2018-12-22T05:25:13.008Z,4.20
2018-12-22T05:27:40.530Z,3.57
2018-12-22T05:30:08.303Z,2.40
2018-12-22T05:32:35.769Z,3.87
2018-12-22T05:35:03.429Z,2.57
2018-12-22T05:37:30.894Z,1.93
2018-12-22T05:39:58.366Z,3.90
2018-12-22T05:42:25.787Z,3.77
2018-12-22T05:44:53.342Z,1.40
2018-12-22T05:47:20.804Z,2.93
2018-12-22T05:49:48.302Z,3.23
2018-12-22T05:52:15.742Z,2.00
2018-12-22T05:54:43.185Z,3.13
2018-12-22T05:57:10.624Z,3.60
2018-12-22T05:59:38.071Z,1.87
2018-12-22T06:02:05.566Z,2.13
2018-12-22T06:04:33.020Z,3.40
2018-12-22T06:07:00.437Z,3.63
2018-12-22T06:09:27.936Z,2.40
2018-12-22T06:11:55.379Z,2.57
2018-12-22T06:14:22.807Z,2.87
2018-12-22T06:16:50.302Z,1.87
2018-12-22T06:19:17.737Z,4.30
2018-12-22T06:21:45.194Z,3.90
2018-12-22T06:24:12.666Z,2.40
2018-12-22T06:26:40.133Z,1.37
2018-12-22T06:29:07.603Z,2.20
2018-12-22T06:31:35.069Z,2.33
2018-12-22T06:34:02.512Z,2.20
2018-12-22T06:36:29.922Z,1.40
2018-12-22T06:38:57.381Z,2.43
2018-12-22T06:41:24.901Z,3.00
2018-12-22T06:43:52.373Z,1.33
2018-12-22T06:46:19.812Z,1.73
2018-12-22T06:48:47.225Z,6.23
2018-12-22T06:51:14.735Z,3.33
2018-12-22T06:53:42.188Z,5.47
2018-12-22T06:56:09.625Z,3.30
2018-12-22T06:58:37.090Z,4.03
2018-12-22T07:01:04.524Z,4.77
2018-12-22T07:03:32.209Z,2.50
2018-12-22T07:05:59.689Z,1.60
2018-12-22T07:08:27.116Z,1.60
2018-12-22T07:10:54.560Z,2.30
2018-12-22T07:13:22.034Z,4.43
2018-12-22T07:15:49.511Z,3.20
2018-12-22T07:18:17.035Z,2.67
2018-12-22T07:20:44.521Z,2.30
2018-12-22T07:23:12.002Z,3.30
2018-12-22T07:25:39.409Z,3.47
2018-12-22T07:28:06.894Z,3.20
2018-12-22T07:30:34.469Z,4.17
2018-12-22T07:33:01.949Z,2.73
2018-12-22T07:35:29.348Z,2.53
2018-12-22T07:37:56.814Z,2.30
2018-12-22T07:40:24.300Z,3.03
2018-12-22T07:42:51.765Z,2.80
2018-12-22T07:45:19.275Z,3.97
2018-12-22T07:47:46.706Z,2.67
2018-12-22T07:50:14.140Z,2.23
2018-12-22T07:52:41.614Z,5.80
2018-12-22T07:55:09.040Z,4.37
2018-12-22T07:57:36.557Z,6.00
2018-12-22T08:00:06.147Z,6.23
2018-12-22T08:02:33.636Z,1.77
2018-12-22T08:05:01.051Z,3.90
2018-12-22T08:07:28.618Z,1.87
2018-12-22T08:09:56.150Z,2.80
2018-12-22T08:12:23.556Z,1.87
2018-12-22T08:14:51.776Z,1.30
2018-12-22T08:17:19.183Z,5.90
2018-12-22T08:19:46.671Z,3.47
2018-12-22T08:22:14.122Z,1.40
2018-12-22T08:24:41.581Z,1.70
2018-12-22T08:27:08.997Z,2.27
2018-12-22T08:29:36.579Z,1.67
2018-12-22T08:32:04.196Z,5.90
2018-12-22T08:34:31.632Z,2.70
2018-12-22T08:36:59.119Z,5.27
2018-12-22T08:39:26.540Z,2.80
2018-12-22T08:41:54.041Z,6.37
2018-12-22T08:44:21.484Z,4.47
2018-12-22T08:46:48.905Z,2.67
2018-12-22T08:49:16.405Z,3.97
2018-12-22T08:51:43.853Z,4.23
2018-12-22T08:54:11.309Z,7.43
2018-12-22T08:56:38.920Z,10.17
2018-12-22T08:59:06.808Z,4.83
2018-12-22T09:01:34.289Z,6.80
2018-12-22T09:04:01.758Z,6.93
2018-12-22T09:06:29.317Z,4.93
2018-12-22T09:08:56.753Z,9.00
2018-12-22T09:11:24.238Z,6.27
2018-12-22T09:13:51.661Z,5.17
2018-12-22T09:16:19.109Z,5.70
2018-12-22T09:18:46.561Z,3.50
2018-12-22T09:21:14.030Z,3.90
2018-12-22T09:23:41.441Z,2.57
2018-12-22T09:26:08.905Z,2.63
2018-12-22T09:28:36.374Z,2.83
2018-12-22T09:31:04.098Z,2.17
2018-12-22T09:33:31.571Z,2.13
2018-12-22T09:35:59.065Z,4.27
2018-12-22T09:38:26.560Z,3.80
2018-12-22T09:40:54.009Z,4.60
2018-12-22T09:43:21.516Z,2.10
2018-12-22T09:45:49.270Z,2.27
2018-12-22T09:48:16.676Z,1.97
2018-12-22T09:50:45.119Z,1.97
2018-12-22T09:53:12.599Z,2.07
2018-12-22T09:55:40.100Z,2.23
2018-12-22T09:58:07.603Z,2.17
2018-12-22T10:00:35.044Z,2.53
2018-12-22T10:03:02.554Z,3.23
2018-12-22T10:05:30.122Z,2.13
2018-12-22T10:07:57.668Z,2.30
2018-12-22T10:10:25.108Z,2.03
2018-12-22T10:12:52.552Z,4.70
2018-12-22T10:15:19.965Z,8.10
2018-12-22T10:17:47.414Z,2.80
2018-12-22T10:20:15.615Z,3.73
2018-12-22T10:22:43.063Z,3.60
2018-12-22T10:25:10.524Z,3.20
2018-12-22T10:27:38.018Z,3.37
2018-12-22T10:30:08.291Z,4.30
2018-12-22T10:32:35.701Z,4.93
2018-12-22T10:35:06.276Z,3.90
2018-12-22T10:37:33.736Z,3.57
2018-12-22T10:40:01.207Z,3.00
2018-12-22T10:42:28.677Z,1.37
2018-12-22T10:44:56.129Z,1.00
2018-12-22T10:47:23.581Z,1.27
2018-12-22T10:49:51.048Z,1.93
2018-12-22T10:52:18.540Z,1.90
2018-12-22T10:54:46.109Z,0.57
2018-12-22T10:57:13.584Z,0.50
2018-12-22T10:59:41.010Z,0.80
2018-12-22T11:02:08.449Z,4.43
2018-12-22T11:04:36.098Z,0.60
2018-12-22T11:07:03.519Z,1.63
2018-12-22T11:09:31.011Z,2.43
2018-12-22T11:11:58.469Z,1.27
2018-12-22T11:14:25.927Z,0.63
2018-12-22T11:16:53.581Z,0.80
2018-12-22T11:19:21.032Z,1.10
2018-12-22T11:21:48.486Z,1.77
2018-12-22T11:24:15.931Z,0.60
2018-12-22T11:26:43.649Z,1.90
2018-12-22T11:29:11.056Z,1.90
2018-12-22T11:31:38.524Z,1.80
2018-12-22T11:34:06.018Z,1.10
2018-12-22T11:36:33.514Z,2.40
2018-12-22T11:39:00.929Z,2.20
2018-12-22T11:41:28.509Z,1.37
2018-12-22T11:43:55.928Z,1.73
2018-12-22T11:46:23.493Z,1.00
2018-12-22T11:48:50.969Z,1.33
2018-12-22T11:51:18.384Z,1.33
2018-12-22T11:53:45.852Z,2.70
2018-12-22T11:56:13.292Z,2.27
2018-12-22T11:58:40.769Z,0.87
2018-12-22T12:01:08.293Z,1.27
2018-12-22T12:03:35.757Z,7.40
2018-12-22T12:06:03.324Z,2.30
2018-12-22T12:08:30.842Z,2.67
2018-12-22T12:11:00.412Z,0.63
2018-12-22T12:13:27.942Z,0.83
2018-12-22T12:15:55.507Z,0.67
2018-12-22T12:18:30.592Z,1.17
2018-12-22T12:20:58.044Z,1.30
2018-12-22T12:23:25.497Z,1.03
2018-12-22T12:25:52.978Z,0.60
2018-12-22T12:28:20.408Z,0.73
2018-12-22T12:30:47.886Z,1.70
2018-12-22T12:33:15.459Z,1.37
2018-12-22T12:35:42.885Z,1.77
2018-12-22T12:38:10.305Z,0.80
2018-12-22T12:40:37.800Z,2.30
2018-12-22T12:43:05.254Z,0.93
2018-12-22T12:45:32.706Z,0.60
2018-12-22T12:48:00.163Z,0.90
2018-12-22T12:50:27.639Z,1.20
2018-12-22T12:52:55.082Z,0.80
2018-12-22T12:55:22.599Z,2.27
2018-12-22T12:57:50.006Z,3.67
2018-12-22T13:00:20.616Z,2.63
2018-12-22T13:02:48.109Z,1.10
2018-12-22T13:05:15.512Z,1.27
2018-12-22T13:07:42.986Z,4.30
2018-12-22T13:10:11.990Z,1.00
2018-12-22T13:12:51.075Z,2.30
2018-12-22T13:15:18.575Z,1.53
2018-12-22T13:17:46.024Z,1.73
2018-12-22T13:20:13.475Z,2.53
2018-12-22T13:22:40.911Z,2.23
2018-12-22T13:25:08.376Z,2.03
2018-12-22T13:27:35.828Z,3.27
2018-12-22T13:30:06.600Z,1.03
2018-12-22T13:32:34.025Z,1.43
2018-12-22T13:35:01.457Z,1.33
2018-12-22T13:37:28.916Z,2.90
2018-12-22T13:39:56.375Z,4.10
2018-12-22T13:42:23.876Z,1.80
2018-12-22T13:44:51.346Z,1.77
2018-12-22T13:47:18.814Z,1.60
2018-12-22T13:49:46.633Z,1.50
2018-12-22T13:52:14.201Z,3.63
2018-12-22T13:54:41.709Z,2.17
2018-12-22T13:57:09.157Z,1.50
2018-12-22T13:59:36.675Z,2.23
2018-12-22T14:02:04.152Z,1.60
2018-12-22T14:04:31.656Z,2.93
2018-12-22T14:06:59.189Z,2.40
2018-12-22T14:09:26.649Z,1.23
2018-12-22T14:11:54.159Z,2.10
2018-12-22T14:14:21.635Z,1.00
2018-12-22T14:16:49.188Z,1.30
2018-12-22T14:19:16.639Z,2.20
2018-12-22T14:21:44.137Z,3.00
2018-12-22T14:24:15.188Z,1.77
2018-12-22T14:26:42.822Z,1.10
2018-12-22T14:29:10.367Z,1.73
2018-12-22T14:31:37.803Z,3.23
2018-12-22T14:34:16.960Z,3.50
2018-12-22T14:36:44.406Z,1.83
2018-12-22T14:39:11.852Z,4.33
2018-12-22T14:41:39.365Z,4.53
2018-12-22T14:44:06.821Z,4.33
2018-12-22T14:46:34.220Z,8.07
2018-12-22T14:49:01.761Z,8.77
2018-12-22T14:51:31.299Z,17.97
2018-12-22T14:53:58.695Z,3.80
2018-12-22T14:56:32.863Z,1.67
2018-12-22T14:59:00.365Z,2.97
2018-12-22T15:01:28.121Z,4.00
2018-12-22T15:03:55.650Z,3.17
2018-12-22T15:06:23.097Z,3.90
2018-12-22T15:08:50.609Z,3.93
2018-12-22T15:11:18.124Z,1.93
2018-12-22T15:13:45.533Z,2.33
2018-12-22T15:16:13.038Z,2.53
2018-12-22T15:18:40.601Z,3.07
2018-12-22T15:21:08.049Z,4.27
2018-12-22T15:23:35.521Z,2.57
2018-12-22T15:26:02.969Z,2.07
2018-12-22T15:28:30.530Z,2.73
2018-12-22T15:30:58.017Z,2.20
2018-12-22T15:33:25.519Z,2.07
2018-12-22T15:35:53.944Z,2.03
2018-12-22T15:38:21.427Z,2.13
2018-12-22T15:40:48.958Z,3.70
2018-12-22T15:43:16.377Z,4.43
2018-12-22T15:45:43.842Z,4.03
2018-12-22T15:48:11.280Z,2.50
2018-12-22T15:50:41.236Z,5.00
2018-12-22T15:53:08.741Z,2.67
2018-12-22T15:55:36.188Z,1.70
2018-12-22T15:58:03.736Z,5.97
2018-12-22T16:00:31.220Z,6.67
2018-12-22T16:02:58.724Z,2.43
2018-12-22T16:05:26.167Z,3.50
2018-12-22T16:07:53.611Z,5.10
2018-12-22T16:10:21.128Z,5.00
2018-12-22T16:12:48.562Z,5.97
2018-12-22T16:15:19.255Z,10.93
2018-12-22T16:17:46.789Z,19.47
2018-12-22T16:20:14.340Z,10.77
2018-12-22T16:22:45.924Z,5.30
2018-12-22T16:25:13.546Z,5.80
2018-12-22T16:27:41.443Z,1.90
2018-12-22T16:30:20.399Z,5.10
2018-12-22T16:32:47.829Z,5.93
2018-12-22T16:35:15.291Z,5.27
2018-12-22T16:37:42.910Z,4.27
2018-12-22T16:40:12.605Z,3.83
2018-12-22T16:42:40.572Z,4.80
2018-12-22T16:45:13.846Z,4.67
2018-12-22T16:47:41.346Z,2.50
2018-12-22T16:50:12.460Z,3.10
2018-12-22T16:52:39.924Z,6.03
2018-12-22T16:55:11.309Z,4.67
2018-12-22T16:57:40.076Z,4.13
2018-12-22T17:00:15.065Z,3.63
2018-12-22T17:02:43.815Z,6.67
2018-12-22T17:05:11.311Z,6.57
2018-12-22T17:07:38.745Z,6.20
2018-12-22T17:10:08.946Z,4.07
2018-12-22T17:12:36.405Z,4.37
2018-12-22T17:15:10.482Z,5.57
2018-12-22T17:17:37.893Z,6.20
2018-12-22T17:20:09.183Z,5.27
2018-12-22T17:22:38.196Z,9.57
2018-12-22T17:25:09.548Z,4.13
2018-12-22T17:27:37.013Z,3.73
2018-12-22T17:30:06.189Z,7.03
2018-12-22T17:32:33.691Z,5.93
2018-12-22T17:35:01.170Z,4.70
2018-12-22T17:37:28.685Z,3.93
2018-12-22T17:39:56.252Z,6.37
2018-12-22T17:42:23.865Z,4.43
2018-12-22T17:44:51.351Z,2.50
2018-12-22T17:47:18.874Z,3.43
2018-12-22T17:49:46.320Z,2.80
2018-12-22T17:52:13.893Z,3.10
2018-12-22T17:54:41.397Z,2.63
2018-12-22T17:57:08.924Z,2.83
2018-12-22T17:59:36.398Z,3.37
2018-12-22T18:02:04.007Z,2.63
2018-12-22T18:04:31.471Z,3.93
2018-12-22T18:06:58.941Z,4.37
2018-12-22T18:09:26.373Z,4.00
2018-12-22T18:11:53.846Z,3.33
2018-12-22T18:14:21.296Z,6.03
2018-12-22T18:16:48.965Z,3.83
2018-12-22T18:19:16.739Z,4.30
2018-12-22T18:21:44.206Z,4.27
2018-12-22T18:24:11.629Z,5.17
2018-12-22T18:26:39.116Z,5.30
2018-12-22T18:29:06.620Z,4.43
2018-12-22T18:31:34.103Z,3.57
2018-12-22T18:34:01.545Z,2.63
2018-12-22T18:36:29.033Z,5.43
2018-12-22T18:38:56.498Z,4.40
2018-12-22T18:41:24.034Z,7.23
2018-12-22T18:43:51.582Z,4.63
2018-12-22T18:46:19.016Z,5.23
2018-12-22T18:48:46.432Z,7.50
2018-12-22T18:51:13.913Z,8.17
2018-12-22T18:53:41.451Z,6.70
2018-12-22T18:56:08.851Z,4.93
2018-12-22T18:58:36.347Z,7.10
2018-12-22T19:01:03.867Z,3.53
2018-12-22T19:03:31.397Z,6.17
2018-12-22T19:05:58.915Z,5.50
2018-12-22T19:08:26.490Z,4.63
2018-12-22T19:10:54.001Z,5.50
2018-12-22T19:13:21.442Z,5.93
2018-12-22T19:15:48.931Z,7.30
2018-12-22T19:18:16.370Z,8.93
2018-12-22T19:20:43.932Z,5.20
2018-12-22T19:23:11.708Z,4.63
2018-12-22T19:25:41.934Z,9.37
2018-12-22T19:28:09.699Z,5.70
2018-12-22T19:30:37.140Z,5.53
2018-12-22T19:33:04.636Z,2.60
2018-12-22T19:35:32.143Z,9.50
2018-12-22T19:38:00.596Z,3.70
2018-12-22T19:40:28.060Z,5.00
2018-12-22T19:42:56.595Z,5.30
2018-12-22T19:45:25.018Z,5.60
2018-12-22T19:47:52.445Z,6.07
2018-12-22T19:50:19.978Z,4.17
2018-12-22T19:52:47.452Z,4.60
2018-12-22T19:55:14.929Z,4.60
2018-12-22T19:57:42.402Z,6.13
2018-12-22T20:00:10.014Z,6.43
2018-12-22T20:02:37.437Z,4.43
2018-12-22T20:05:05.728Z,3.33
2018-12-22T20:07:33.536Z,3.30
2018-12-22T20:10:01.053Z,4.17
2018-12-22T20:12:28.541Z,3.63
2018-12-22T20:14:56.101Z,5.67
2018-12-22T20:17:23.562Z,3.40
2018-12-22T20:19:51.053Z,4.30
2018-12-22T20:22:18.478Z,4.87
2018-12-22T20:24:45.978Z,4.60
2018-12-22T20:27:13.492Z,6.20
2018-12-22T20:29:40.954Z,7.37
2018-12-22T20:32:08.386Z,4.80
2018-12-22T20:34:35.942Z,7.37
2018-12-22T20:37:03.406Z,2.80
2018-12-22T20:39:30.871Z,8.53
2018-12-22T20:41:58.387Z,6.70
2018-12-22T20:44:25.858Z,4.37
2018-12-22T20:46:53.314Z,5.93
2018-12-22T20:49:20.840Z,3.97
2018-12-22T20:51:49.402Z,4.20
2018-12-22T20:54:16.844Z,5.40
2018-12-22T20:56:44.335Z,5.10
2018-12-22T20:59:12.649Z,7.63
2018-12-22T21:01:40.185Z,6.93
2018-12-22T21:04:07.759Z,4.70
2018-12-22T21:06:35.276Z,5.63
2018-12-22T21:09:04.447Z,10.77
2018-12-22T21:11:31.977Z,4.50
2018-12-22T21:13:59.482Z,4.30
2018-12-22T21:16:27.068Z,5.47
2018-12-22T21:18:54.619Z,4.63
2018-12-22T21:21:22.039Z,7.40
2018-12-22T21:23:49.595Z,6.20
2018-12-22T21:26:17.064Z,5.70
2018-12-22T21:28:44.557Z,6.93
2018-12-22T21:31:12.063Z,5.77
2018-12-22T21:33:39.545Z,6.23
2018-12-22T21:36:07.030Z,7.10
2018-12-22T21:38:34.716Z,5.10
2018-12-22T21:41:02.209Z,6.03
2018-12-22T21:43:29.651Z,5.43
2018-12-22T21:45:57.147Z,3.73
2018-12-22T21:48:24.588Z,5.30
2018-12-22T21:50:53.129Z,5.23
2018-12-22T21:53:20.600Z,6.10
2018-12-22T21:55:48.116Z,4.87
2018-12-22T21:58:15.590Z,4.77
2018-12-22T22:00:43.352Z,3.13
2018-12-22T22:03:10.990Z,6.17
2018-12-22T22:05:38.435Z,3.50
2018-12-22T22:08:05.854Z,3.00
2018-12-22T22:10:33.364Z,3.83
2018-12-22T22:13:00.826Z,5.33
2018-12-22T22:15:28.265Z,10.70
2018-12-22T22:17:55.769Z,4.10
2018-12-22T22:20:23.227Z,3.87
2018-12-22T22:22:50.674Z,3.77
2018-12-22T22:25:18.120Z,3.97
2018-12-22T22:27:45.610Z,5.17
2018-12-22T22:30:13.992Z,4.77
2018-12-22T22:32:41.530Z,4.03
2018-12-22T22:35:08.998Z,2.97
2018-12-22T22:37:36.684Z,3.30
2018-12-22T22:40:04.908Z,10.67
2018-12-22T22:42:32.350Z,8.83
2018-12-22T22:44:59.848Z,4.93
2018-12-22T22:47:27.613Z,5.73
2018-12-22T22:49:55.121Z,17.90
2018-12-22T22:52:22.594Z,11.87
2018-12-22T22:54:50.043Z,7.87
2018-12-22T22:57:17.485Z,8.10
2018-12-22T22:59:44.936Z,12.83
2018-12-22T23:02:12.380Z,8.73
2018-12-22T23:04:39.848Z,6.27
2018-12-22T23:07:07.301Z,9.07
2018-12-22T23:09:34.749Z,11.87
2018-12-22T23:12:02.284Z,8.43
2018-12-22T23:14:29.762Z,10.23
2018-12-22T23:16:57.269Z,11.00
2018-12-22T23:19:24.716Z,11.83
2018-12-22T23:21:52.200Z,12.93
2018-12-22T23:24:19.691Z,10.23
2018-12-22T23:26:47.217Z,24.07
2018-12-22T23:29:14.673Z,9.10
2018-12-22T23:31:42.158Z,11.37
2018-12-22T23:34:09.609Z,12.13
2018-12-22T23:36:37.077Z,13.43
2018-12-22T23:39:05.708Z,18.40
2018-12-22T23:41:33.183Z,12.67
2018-12-22T23:44:00.657Z,14.07
2018-12-22T23:46:28.118Z,10.63
2018-12-22T23:48:55.610Z,16.70
2018-12-22T23:51:23.022Z,14.70
2018-12-22T23:53:50.545Z,15.57
2018-12-22T23:56:18.035Z,12.90
2018-12-22T23:58:45.490Z,15.83
